sensor_id;sensor_type;location;lat;lon;timestamp;P1;durP1;ratioP1;P2;durP2;ratioP2
77738;SDS011;66904;59.926;30.404;2023-04-03T00:01:54;0.65;;;0.10;;
77738;SDS011;66904;59.926;30.404;2023-04-03T00:07:10;0.40;;;0.20;;
77738;SDS011;66904;59.926;30.404;2023-04-03T00:12:35;0.52;;;0.10;;
77738;SDS011;66904;59.926;30.404;2023-04-03T00:17:36;0.22;;;0.13;;
77738;SDS011;66904;59.926;30.404;2023-04-03T00:22:36;0.30;;;0.10;;
77738;SDS011;66904;59.926;30.404;2023-04-03T00:27:37;0.05;;;0.00;;
77738;SDS011;66904;59.926;30.404;2023-04-03T00:32:39;0.20;;;0.10;;
77738;SDS011;66904;59.926;30.404;2023-04-03T00:37:40;0.17;;;0.10;;
77738;SDS011;66904;59.926;30.404;2023-04-03T00:42:41;0.20;;;0.05;;
77738;SDS011;66904;59.926;30.404;2023-04-03T00:47:42;0.17;;;0.00;;
77738;SDS011;66904;59.926;30.404;2023-04-03T00:52:43;0.32;;;0.10;;
77738;SDS011;66904;59.926;30.404;2023-04-03T00:57:46;0.35;;;0.10;;
77738;SDS011;66904;59.926;30.404;2023-04-03T01:02:56;0.00;;;0.00;;
77738;SDS011;66904;59.926;30.404;2023-04-03T01:07:56;0.52;;;0.20;;
77738;SDS011;66904;59.926;30.404;2023-04-03T01:18:59;0.60;;;0.15;;
77738;SDS011;66904;59.926;30.404;2023-04-03T01:29:24;0.32;;;0.10;;
77738;SDS011;66904;59.926;30.404;2023-04-03T01:34:24;0.00;;;0.00;;
77738;SDS011;66904;59.926;30.404;2023-04-03T01:39:26;0.35;;;0.20;;
77738;SDS011;66904;59.926;30.404;2023-04-03T01:44:26;0.22;;;0.17;;
77738;SDS011;66904;59.926;30.404;2023-04-03T01:49:27;0.95;;;0.30;;
77738;SDS011;66904;59.926;30.404;2023-04-03T01:54:27;0.30;;;0.10;;
77738;SDS011;66904;59.926;30.404;2023-04-03T01:59:28;0.20;;;0.10;;
77738;SDS011;66904;59.926;30.404;2023-04-03T02:04:28;0.10;;;0.00;;
77738;SDS011;66904;59.926;30.404;2023-04-03T02:09:29;0.20;;;0.20;;
77738;SDS011;66904;59.926;30.404;2023-04-03T02:14:30;0.03;;;0.00;;
77738;SDS011;66904;59.926;30.404;2023-04-03T02:19:30;0.70;;;0.20;;
77738;SDS011;66904;59.926;30.404;2023-04-03T02:30:37;0.20;;;0.08;;
77738;SDS011;66904;59.926;30.404;2023-04-03T02:36:03;0.43;;;0.17;;
77738;SDS011;66904;59.926;30.404;2023-04-03T02:41:15;0.08;;;0.05;;
77738;SDS011;66904;59.926;30.404;2023-04-03T02:46:34;0.45;;;0.13;;
77738;SDS011;66904;59.926;30.404;2023-04-03T02:51:35;0.20;;;0.00;;
77738;SDS011;66904;59.926;30.404;2023-04-03T02:56:35;0.15;;;0.10;;
77738;SDS011;66904;59.926;30.404;2023-04-03T03:01:36;0.40;;;0.13;;
77738;SDS011;66904;59.926;30.404;2023-04-03T03:06:36;0.80;;;0.13;;
77738;SDS011;66904;59.926;30.404;2023-04-03T03:17:33;0.28;;;0.10;;
77738;SDS011;66904;59.926;30.404;2023-04-03T03:23:07;0.08;;;0.03;;
77738;SDS011;66904;59.926;30.404;2023-04-03T03:28:30;0.00;;;0.00;;
77738;SDS011;66904;59.926;30.404;2023-04-03T03:33:31;0.00;;;0.00;;
77738;SDS011;66904;59.926;30.404;2023-04-03T03:38:31;0.10;;;0.00;;
77738;SDS011;66904;59.926;30.404;2023-04-03T03:43:32;0.35;;;0.10;;
77738;SDS011;66904;59.926;30.404;2023-04-03T03:48:32;0.20;;;0.10;;
77738;SDS011;66904;59.926;30.404;2023-04-03T03:53:33;0.93;;;0.10;;
77738;SDS011;66904;59.926;30.404;2023-04-03T03:58:34;0.43;;;0.10;;
77738;SDS011;66904;59.926;30.404;2023-04-03T04:03:35;0.45;;;0.10;;
77738;SDS011;66904;59.926;30.404;2023-04-03T04:08:37;0.50;;;0.13;;
77738;SDS011;66904;59.926;30.404;2023-04-03T04:13:37;0.17;;;0.10;;
77738;SDS011;66904;59.926;30.404;2023-04-03T04:18:37;0.40;;;0.10;;
77738;SDS011;66904;59.926;30.404;2023-04-03T04:23:38;0.17;;;0.10;;
77738;SDS011;66904;59.926;30.404;2023-04-03T04:28:38;0.20;;;0.10;;
77738;SDS011;66904;59.926;30.404;2023-04-03T04:33:39;6.15;;;0.80;;
77738;SDS011;66904;59.926;30.404;2023-04-03T04:38:40;5.10;;;0.40;;
77738;SDS011;66904;59.926;30.404;2023-04-03T04:43:41;1.38;;;0.50;;
77738;SDS011;66904;59.926;30.404;2023-04-03T04:48:41;9.50;;;0.97;;
77738;SDS011;66904;59.926;30.404;2023-04-03T04:53:42;5.65;;;1.40;;
77738;SDS011;66904;59.926;30.404;2023-04-03T04:58:43;3.25;;;0.80;;
77738;SDS011;66904;59.926;30.404;2023-04-03T05:03:43;4.00;;;0.77;;
77738;SDS011;66904;59.926;30.404;2023-04-03T05:08:44;1.30;;;0.63;;
77738;SDS011;66904;59.926;30.404;2023-04-03T05:13:44;3.43;;;0.57;;
77738;SDS011;66904;59.926;30.404;2023-04-03T05:18:45;3.03;;;0.70;;
77738;SDS011;66904;59.926;30.404;2023-04-03T05:23:45;2.73;;;1.30;;
77738;SDS011;66904;59.926;30.404;2023-04-03T05:28:46;1.93;;;0.60;;
77738;SDS011;66904;59.926;30.404;2023-04-03T05:33:47;1.70;;;0.40;;
77738;SDS011;66904;59.926;30.404;2023-04-03T05:38:48;0.60;;;0.20;;
77738;SDS011;66904;59.926;30.404;2023-04-03T05:43:48;1.55;;;0.60;;
77738;SDS011;66904;59.926;30.404;2023-04-03T05:48:49;0.63;;;0.43;;
77738;SDS011;66904;59.926;30.404;2023-04-03T05:53:50;0.80;;;0.30;;
77738;SDS011;66904;59.926;30.404;2023-04-03T05:59:00;0.90;;;0.30;;
77738;SDS011;66904;59.926;30.404;2023-04-03T06:04:00;1.50;;;0.40;;
77738;SDS011;66904;59.926;30.404;2023-04-03T06:09:01;0.77;;;0.30;;
77738;SDS011;66904;59.926;30.404;2023-04-03T06:14:02;1.92;;;0.50;;
77738;SDS011;66904;59.926;30.404;2023-04-03T06:19:03;2.42;;;0.85;;
77738;SDS011;66904;59.926;30.404;2023-04-03T06:24:04;1.10;;;0.30;;
77738;SDS011;66904;59.926;30.404;2023-04-03T06:29:05;0.60;;;0.50;;
77738;SDS011;66904;59.926;30.404;2023-04-03T06:34:06;1.08;;;0.70;;
77738;SDS011;66904;59.926;30.404;2023-04-03T06:39:08;0.63;;;0.22;;
77738;SDS011;66904;59.926;30.404;2023-04-03T06:44:12;0.98;;;0.28;;
77738;SDS011;66904;59.926;30.404;2023-04-03T06:49:15;0.50;;;0.28;;
77738;SDS011;66904;59.926;30.404;2023-04-03T06:54:16;0.50;;;0.30;;
77738;SDS011;66904;59.926;30.404;2023-04-03T06:59:16;0.50;;;0.28;;
77738;SDS011;66904;59.926;30.404;2023-04-03T07:04:17;0.50;;;0.20;;
77738;SDS011;66904;59.926;30.404;2023-04-03T07:09:20;0.75;;;0.40;;
77738;SDS011;66904;59.926;30.404;2023-04-03T07:14:21;0.98;;;0.32;;
77738;SDS011;66904;59.926;30.404;2023-04-03T07:19:22;0.55;;;0.20;;
77738;SDS011;66904;59.926;30.404;2023-04-03T07:24:24;0.43;;;0.17;;
77738;SDS011;66904;59.926;30.404;2023-04-03T07:29:24;0.65;;;0.30;;
77738;SDS011;66904;59.926;30.404;2023-04-03T07:34:25;1.30;;;0.43;;
77738;SDS011;66904;59.926;30.404;2023-04-03T07:39:26;0.50;;;0.25;;
77738;SDS011;66904;59.926;30.404;2023-04-03T07:44:28;0.85;;;0.25;;
77738;SDS011;66904;59.926;30.404;2023-04-03T07:49:28;0.60;;;0.40;;
77738;SDS011;66904;59.926;30.404;2023-04-03T07:54:29;0.93;;;0.32;;
77738;SDS011;66904;59.926;30.404;2023-04-03T07:59:30;0.60;;;0.30;;
77738;SDS011;66904;59.926;30.404;2023-04-03T08:04:30;0.80;;;0.30;;
77738;SDS011;66904;59.926;30.404;2023-04-03T08:09:31;0.77;;;0.30;;
77738;SDS011;66904;59.926;30.404;2023-04-03T08:14:32;0.55;;;0.30;;
77738;SDS011;66904;59.926;30.404;2023-04-03T08:19:36;0.47;;;0.20;;
77738;SDS011;66904;59.926;30.404;2023-04-03T08:24:36;0.53;;;0.20;;
77738;SDS011;66904;59.926;30.404;2023-04-03T08:29:37;0.88;;;0.38;;
77738;SDS011;66904;59.926;30.404;2023-04-03T08:34:37;0.70;;;0.43;;
77738;SDS011;66904;59.926;30.404;2023-04-03T08:39:39;0.90;;;0.32;;
77738;SDS011;66904;59.926;30.404;2023-04-03T08:49:44;1.02;;;0.30;;
77738;SDS011;66904;59.926;30.404;2023-04-03T09:00:01;0.73;;;0.20;;
77738;SDS011;66904;59.926;30.404;2023-04-03T09:05:10;2.22;;;0.47;;
77738;SDS011;66904;59.926;30.404;2023-04-03T09:10:14;0.32;;;0.20;;
77738;SDS011;66904;59.926;30.404;2023-04-03T09:15:20;2.05;;;0.17;;
77738;SDS011;66904;59.926;30.404;2023-04-03T09:25:42;0.45;;;0.15;;
77738;SDS011;66904;59.926;30.404;2023-04-03T09:30:43;0.70;;;0.32;;
77738;SDS011;66904;59.926;30.404;2023-04-03T09:35:44;1.17;;;0.32;;
77738;SDS011;66904;59.926;30.404;2023-04-03T09:40:48;0.47;;;0.15;;
77738;SDS011;66904;59.926;30.404;2023-04-03T09:45:51;0.65;;;0.20;;
77738;SDS011;66904;59.926;30.404;2023-04-03T09:56:02;0.32;;;0.20;;
77738;SDS011;66904;59.926;30.404;2023-04-03T10:01:04;0.77;;;0.20;;
77738;SDS011;66904;59.926;30.404;2023-04-03T10:06:21;0.75;;;0.43;;
77738;SDS011;66904;59.926;30.404;2023-04-03T10:11:23;0.40;;;0.20;;
77738;SDS011;66904;59.926;30.404;2023-04-03T10:16:26;0.88;;;0.22;;
77738;SDS011;66904;59.926;30.404;2023-04-03T10:21:48;0.98;;;0.38;;
77738;SDS011;66904;59.926;30.404;2023-04-03T10:37:52;0.20;;;0.10;;
77738;SDS011;66904;59.926;30.404;2023-04-03T10:48:35;0.30;;;0.10;;
77738;SDS011;66904;59.926;30.404;2023-04-03T10:58:58;0.52;;;0.20;;
77738;SDS011;66904;59.926;30.404;2023-04-03T11:04:04;0.43;;;0.10;;
77738;SDS011;66904;59.926;30.404;2023-04-03T11:09:27;1.45;;;0.30;;
77738;SDS011;66904;59.926;30.404;2023-04-03T11:14:38;0.03;;;0.03;;
77738;SDS011;66904;59.926;30.404;2023-04-03T11:30:21;0.32;;;0.10;;
77738;SDS011;66904;59.926;30.404;2023-04-03T11:35:27;1.23;;;0.15;;
77738;SDS011;66904;59.926;30.404;2023-04-03T11:40:29;0.40;;;0.32;;
77738;SDS011;66904;59.926;30.404;2023-04-03T12:00:53;0.75;;;0.22;;
77738;SDS011;66904;59.926;30.404;2023-04-03T12:16:22;2.13;;;0.17;;
77738;SDS011;66904;59.926;30.404;2023-04-03T12:26:31;1.40;;;0.30;;
77738;SDS011;66904;59.926;30.404;2023-04-03T12:31:46;0.43;;;0.20;;
77738;SDS011;66904;59.926;30.404;2023-04-03T12:42:30;0.40;;;0.17;;
77738;SDS011;66904;59.926;30.404;2023-04-03T12:47:43;1.10;;;0.38;;
77738;SDS011;66904;59.926;30.404;2023-04-03T12:52:45;0.55;;;0.17;;
77738;SDS011;66904;59.926;30.404;2023-04-03T12:57:51;1.67;;;0.40;;
77738;SDS011;66904;59.926;30.404;2023-04-03T13:02:55;1.58;;;0.50;;
77738;SDS011;66904;59.926;30.404;2023-04-03T13:08:17;0.95;;;0.28;;
77738;SDS011;66904;59.926;30.404;2023-04-03T13:13:19;1.23;;;0.50;;
77738;SDS011;66904;59.926;30.404;2023-04-03T13:18:21;1.55;;;0.65;;
77738;SDS011;66904;59.926;30.404;2023-04-03T13:23:24;1.45;;;0.30;;
77738;SDS011;66904;59.926;30.404;2023-04-03T13:28:27;2.45;;;0.45;;
77738;SDS011;66904;59.926;30.404;2023-04-03T13:33:30;1.25;;;0.30;;
77738;SDS011;66904;59.926;30.404;2023-04-03T13:38:33;1.00;;;0.30;;
77738;SDS011;66904;59.926;30.404;2023-04-03T13:43:36;1.38;;;0.30;;
77738;SDS011;66904;59.926;30.404;2023-04-03T13:48:39;3.13;;;0.60;;
77738;SDS011;66904;59.926;30.404;2023-04-03T13:53:48;0.28;;;0.17;;
77738;SDS011;66904;59.926;30.404;2023-04-03T13:58:54;0.60;;;0.20;;
77738;SDS011;66904;59.926;30.404;2023-04-03T14:04:01;1.65;;;0.50;;
77738;SDS011;66904;59.926;30.404;2023-04-03T14:09:10;0.65;;;0.50;;
77738;SDS011;66904;59.926;30.404;2023-04-03T14:14:15;3.88;;;0.60;;
77738;SDS011;66904;59.926;30.404;2023-04-03T14:19:25;1.80;;;0.45;;
77738;SDS011;66904;59.926;30.404;2023-04-03T14:24:28;0.57;;;0.22;;
77738;SDS011;66904;59.926;30.404;2023-04-03T14:29:29;0.82;;;0.30;;
77738;SDS011;66904;59.926;30.404;2023-04-03T14:34:29;0.38;;;0.28;;
77738;SDS011;66904;59.926;30.404;2023-04-03T14:39:30;1.38;;;0.50;;
77738;SDS011;66904;59.926;30.404;2023-04-03T14:44:31;0.77;;;0.60;;
77738;SDS011;66904;59.926;30.404;2023-04-03T14:49:31;0.75;;;0.43;;
77738;SDS011;66904;59.926;30.404;2023-04-03T14:54:32;0.82;;;0.28;;
77738;SDS011;66904;59.926;30.404;2023-04-03T14:59:32;1.20;;;0.40;;
77738;SDS011;66904;59.926;30.404;2023-04-03T15:04:33;0.50;;;0.13;;
77738;SDS011;66904;59.926;30.404;2023-04-03T15:09:34;2.72;;;0.20;;
77738;SDS011;66904;59.926;30.404;2023-04-03T15:14:36;0.73;;;0.40;;
77738;SDS011;66904;59.926;30.404;2023-04-03T15:19:37;0.22;;;0.10;;
77738;SDS011;66904;59.926;30.404;2023-04-03T15:24:38;0.50;;;0.10;;
77738;SDS011;66904;59.926;30.404;2023-04-03T15:29:39;0.50;;;0.20;;
77738;SDS011;66904;59.926;30.404;2023-04-03T15:34:41;0.95;;;0.20;;
77738;SDS011;66904;59.926;30.404;2023-04-03T15:39:41;2.03;;;0.32;;
77738;SDS011;66904;59.926;30.404;2023-04-03T15:44:42;0.47;;;0.15;;
77738;SDS011;66904;59.926;30.404;2023-04-03T15:49:42;3.63;;;0.30;;
77738;SDS011;66904;59.926;30.404;2023-04-03T15:54:43;0.43;;;0.10;;
77738;SDS011;66904;59.926;30.404;2023-04-03T15:59:44;2.20;;;0.95;;
77738;SDS011;66904;59.926;30.404;2023-04-03T16:04:44;16.73;;;4.10;;
77738;SDS011;66904;59.926;30.404;2023-04-03T16:09:45;6.05;;;1.85;;
77738;SDS011;66904;59.926;30.404;2023-04-03T16:14:47;3.92;;;1.38;;
77738;SDS011;66904;59.926;30.404;2023-04-03T16:19:47;5.10;;;1.63;;
77738;SDS011;66904;59.926;30.404;2023-04-03T16:24:48;3.05;;;1.02;;
77738;SDS011;66904;59.926;30.404;2023-04-03T16:29:49;1.90;;;0.90;;
77738;SDS011;66904;59.926;30.404;2023-04-03T16:34:50;3.15;;;0.88;;
77738;SDS011;66904;59.926;30.404;2023-04-03T16:39:51;2.58;;;0.65;;
77738;SDS011;66904;59.926;30.404;2023-04-03T16:44:52;1.45;;;0.38;;
77738;SDS011;66904;59.926;30.404;2023-04-03T16:49:53;1.13;;;0.60;;
77738;SDS011;66904;59.926;30.404;2023-04-03T16:54:53;3.72;;;0.43;;
77738;SDS011;66904;59.926;30.404;2023-04-03T16:59:55;3.25;;;0.50;;
77738;SDS011;66904;59.926;30.404;2023-04-03T17:04:56;2.45;;;0.65;;
77738;SDS011;66904;59.926;30.404;2023-04-03T17:09:56;2.63;;;0.50;;
77738;SDS011;66904;59.926;30.404;2023-04-03T17:14:57;1.65;;;0.32;;
77738;SDS011;66904;59.926;30.404;2023-04-03T17:19:57;3.65;;;0.63;;
77738;SDS011;66904;59.926;30.404;2023-04-03T17:25:00;1.58;;;0.30;;
77738;SDS011;66904;59.926;30.404;2023-04-03T17:30:00;2.20;;;0.50;;
77738;SDS011;66904;59.926;30.404;2023-04-03T17:35:01;1.17;;;0.30;;
77738;SDS011;66904;59.926;30.404;2023-04-03T17:40:02;0.90;;;0.30;;
77738;SDS011;66904;59.926;30.404;2023-04-03T17:45:02;1.10;;;0.32;;
77738;SDS011;66904;59.926;30.404;2023-04-03T17:50:04;0.15;;;0.10;;
77738;SDS011;66904;59.926;30.404;2023-04-03T17:55:05;1.55;;;0.40;;
77738;SDS011;66904;59.926;30.404;2023-04-03T18:00:06;2.88;;;0.30;;
77738;SDS011;66904;59.926;30.404;2023-04-03T18:05:08;0.55;;;0.20;;
77738;SDS011;66904;59.926;30.404;2023-04-03T18:10:09;1.65;;;0.30;;
77738;SDS011;66904;59.926;30.404;2023-04-03T18:15:11;0.85;;;0.10;;
77738;SDS011;66904;59.926;30.404;2023-04-03T18:20:11;1.25;;;0.60;;
77738;SDS011;66904;59.926;30.404;2023-04-03T18:25:14;0.30;;;0.30;;
77738;SDS011;66904;59.926;30.404;2023-04-03T18:30:16;0.65;;;0.20;;
77738;SDS011;66904;59.926;30.404;2023-04-03T18:35:17;1.27;;;0.10;;
77738;SDS011;66904;59.926;30.404;2023-04-03T18:40:17;1.70;;;0.50;;
77738;SDS011;66904;59.926;30.404;2023-04-03T18:45:20;2.15;;;0.20;;
77738;SDS011;66904;59.926;30.404;2023-04-03T18:50:22;0.40;;;0.13;;
77738;SDS011;66904;59.926;30.404;2023-04-03T18:55:23;0.30;;;0.10;;
77738;SDS011;66904;59.926;30.404;2023-04-03T19:00:23;0.35;;;0.10;;
77738;SDS011;66904;59.926;30.404;2023-04-03T19:05:25;0.20;;;0.10;;
77738;SDS011;66904;59.926;30.404;2023-04-03T19:10:26;2.63;;;0.38;;
77738;SDS011;66904;59.926;30.404;2023-04-03T19:15:26;0.55;;;0.22;;
77738;SDS011;66904;59.926;30.404;2023-04-03T19:20:27;1.35;;;0.20;;
77738;SDS011;66904;59.926;30.404;2023-04-03T19:25:28;0.90;;;0.30;;
77738;SDS011;66904;59.926;30.404;2023-04-03T19:30:28;1.45;;;0.50;;
77738;SDS011;66904;59.926;30.404;2023-04-03T19:35:30;2.10;;;0.50;;
77738;SDS011;66904;59.926;30.404;2023-04-03T19:40:31;1.02;;;0.50;;
77738;SDS011;66904;59.926;30.404;2023-04-03T19:45:32;2.03;;;0.88;;
77738;SDS011;66904;59.926;30.404;2023-04-03T19:50:33;1.40;;;0.70;;
77738;SDS011;66904;59.926;30.404;2023-04-03T19:55:33;1.63;;;0.70;;
77738;SDS011;66904;59.926;30.404;2023-04-03T20:00:35;1.00;;;0.40;;
77738;SDS011;66904;59.926;30.404;2023-04-03T20:05:35;1.05;;;0.50;;
77738;SDS011;66904;59.926;30.404;2023-04-03T20:10:36;0.75;;;0.30;;
77738;SDS011;66904;59.926;30.404;2023-04-03T20:15:39;0.70;;;0.50;;
77738;SDS011;66904;59.926;30.404;2023-04-03T20:20:41;0.32;;;0.17;;
77738;SDS011;66904;59.926;30.404;2023-04-03T20:25:43;0.38;;;0.20;;
77738;SDS011;66904;59.926;30.404;2023-04-03T20:30:45;0.35;;;0.10;;
77738;SDS011;66904;59.926;30.404;2023-04-03T20:35:47;0.60;;;0.40;;
77738;SDS011;66904;59.926;30.404;2023-04-03T20:40:48;0.70;;;0.17;;
77738;SDS011;66904;59.926;30.404;2023-04-03T20:50:50;0.93;;;0.10;;
77738;SDS011;66904;59.926;30.404;2023-04-03T20:55:54;2.65;;;0.60;;
77738;SDS011;66904;59.926;30.404;2023-04-03T21:00:55;0.95;;;0.30;;
77738;SDS011;66904;59.926;30.404;2023-04-03T21:21:38;5.38;;;0.50;;
77738;SDS011;66904;59.926;30.404;2023-04-03T21:26:39;1.15;;;0.28;;
77738;SDS011;66904;59.926;30.404;2023-04-03T21:37:04;1.42;;;0.15;;
77738;SDS011;66904;59.926;30.404;2023-04-03T21:42:06;1.88;;;0.20;;
77738;SDS011;66904;59.926;30.404;2023-04-03T21:47:06;0.90;;;0.25;;
77738;SDS011;66904;59.926;30.404;2023-04-03T21:52:07;0.82;;;0.22;;
77738;SDS011;66904;59.926;30.404;2023-04-03T21:57:08;0.38;;;0.15;;
77738;SDS011;66904;59.926;30.404;2023-04-03T22:02:12;0.20;;;0.10;;
77738;SDS011;66904;59.926;30.404;2023-04-03T22:07:16;0.85;;;0.38;;
77738;SDS011;66904;59.926;30.404;2023-04-03T22:29:28;0.40;;;0.20;;
77738;SDS011;66904;59.926;30.404;2023-04-03T22:34:28;0.52;;;0.10;;
77738;SDS011;66904;59.926;30.404;2023-04-03T22:39:29;0.28;;;0.10;;
77738;SDS011;66904;59.926;30.404;2023-04-03T22:44:29;0.20;;;0.00;;
77738;SDS011;66904;59.926;30.404;2023-04-03T22:49:30;0.57;;;0.10;;
77738;SDS011;66904;59.926;30.404;2023-04-03T22:54:31;0.63;;;0.20;;
77738;SDS011;66904;59.926;30.404;2023-04-03T22:59:32;0.20;;;0.10;;
77738;SDS011;66904;59.926;30.404;2023-04-03T23:04:32;0.80;;;0.20;;
77738;SDS011;66904;59.926;30.404;2023-04-03T23:09:33;0.55;;;0.17;;
77738;SDS011;66904;59.926;30.404;2023-04-03T23:14:33;0.23;;;0.10;;
77738;SDS011;66904;59.926;30.404;2023-04-03T23:19:34;0.77;;;0.20;;
77738;SDS011;66904;59.926;30.404;2023-04-03T23:24:37;2.50;;;0.32;;
77738;SDS011;66904;59.926;30.404;2023-04-03T23:29:38;0.25;;;0.10;;
77738;SDS011;66904;59.926;30.404;2023-04-03T23:34:44;0.30;;;0.13;;
77738;SDS011;66904;59.926;30.404;2023-04-03T23:39:47;0.38;;;0.10;;
77738;SDS011;66904;59.926;30.404;2023-04-03T23:44:47;0.63;;;0.20;;
77738;SDS011;66904;59.926;30.404;2023-04-03T23:49:48;0.22;;;0.15;;
